Time;durP1;ratioP1;P1;durP2;ratioP2;P2;SDS_P1;SDS_P2;PMS_P1;PMS_P2;Temp;Humidity;BMP_temperature;BMP_pressure;BME280_temperature;BME280_humidity;BME280_pressure;Samples;Min_cycle;Max_cycle;Signal;HPM_P1;HPM_P2
2021/12/02 00:00:41;;;;;;;14.10;3.13;;;;;;;3.12;94.34;99837.16;5092622;28;20085;-56
2021/12/02 00:03:08;;;;;;;22.08;2.95;;;;;;;3.19;93.61;99828.09;5092625;28;20388;-56
2021/12/02 00:05:34;;;;;;;14.57;2.50;;;;;;;3.20;93.63;99828.97;5092544;28;20026;-55
2021/12/02 00:08:00;;;;;;;11.27;2.75;;;;;;;3.19;93.81;99833.19;5092695;28;20095;-56
2021/12/02 01:22:48;;;;;;;13.02;3.40;;;;;;;2.88;97.87;99829.31;5093182;28;20040;-53
2021/12/02 01:25:18;;;;;;;12.93;2.72;;;;;;;2.89;97.98;99828.53;5095357;28;20047;-54
2021/12/02 01:27:48;;;;;;;10.38;2.72;;;;;;;2.90;97.96;99842.97;5094596;28;20101;-53
2021/12/02 01:30:14;;;;;;;23.10;12.95;;;;;;;2.93;97.99;99842.22;5094937;28;20038;-54
2021/12/02 01:32:40;;;;;;;13.93;2.72;;;;;;;2.92;98.02;99838.81;5095175;28;20054;-54
2021/12/02 01:35:07;;;;;;;12.73;4.18;;;;;;;2.93;98.39;99844.78;5094917;28;20024;-54
2021/12/02 01:37:33;;;;;;;9.27;2.67;;;;;;;2.94;98.45;99847.41;5094802;28;20044;-53
2021/12/02 01:39:59;;;;;;;11.68;2.88;;;;;;;2.94;98.63;99844.88;5094804;28;20115;-55
2021/12/02 01:42:27;;;;;;;13.30;2.58;;;;;;;2.96;98.76;99850.88;5094228;28;20429;-52
2021/12/02 01:44:55;;;;;;;11.73;2.55;;;;;;;3.01;98.99;99860.38;5094911;28;20026;-56
2021/12/02 01:47:23;;;;;;;9.40;1.85;;;;;;;3.06;97.82;99859.78;5095133;28;20027;-56
2021/12/02 01:49:52;;;;;;;;;;;;;;;3.23;96.74;99857.97;5094152;28;20479;-55
2021/12/02 01:52:24;;;;;;;11.88;2.70;;;;;;;2.95;97.94;99866.09;5095010;28;19962;-55
2021/12/02 01:55:02;;;;;;;9.23;1.83;;;;;;;2.89;98.15;99861.59;5094470;28;20024;-57
2021/12/02 01:57:32;;;;;;;6.68;1.58;;;;;;;2.83;98.10;99858.78;5093816;28;20472;-56
2021/12/02 02:00:18;;;;;;;9.23;1.77;;;;;;;2.78;98.25;99847.53;5094715;28;20028;-56
2021/12/02 02:02:43;;;;;;;5.38;1.63;;;;;;;2.68;98.07;99837.75;5093873;28;20032;-56
2021/12/02 02:05:13;;;;;;;9.68;2.17;;;;;;;2.61;98.21;99837.44;5094320;28;20023;-55
2021/12/02 02:08:21;;;;;;;8.90;2.10;;;;;;;2.57;98.52;99848.28;5094077;28;20020;-56
2021/12/02 02:10:47;;;;;;;10.38;2.03;;;;;;;2.46;98.96;99842.69;5093444;28;20028;-56
2021/12/02 02:13:13;;;;;;;13.13;2.35;;;;;;;2.41;99.34;99848.38;5094342;28;20025;-56
2021/12/02 02:15:41;;;;;;;13.73;2.85;;;;;;;2.38;99.71;99850.81;5094114;28;20368;-56
2021/12/02 02:18:14;;;;;;;11.00;2.53;;;;;;;2.35;100.00;99845.56;5093500;28;20020;-56
2021/12/02 02:20:46;;;;;;;10.85;2.40;;;;;;;2.28;100.00;99847.81;5094222;28;20031;-56
2021/12/02 02:23:12;;;;;;;11.20;2.92;;;;;;;2.28;100.00;99845.25;5094202;28;20042;-55
2021/12/02 02:25:42;;;;;;;13.05;2.60;;;;;;;2.25;100.00;99841.72;5093230;28;20032;-56
2021/12/02 02:28:07;;;;;;;9.05;2.60;;;;;;;2.21;100.00;99845.78;5093985;28;20509;-56
2021/12/02 02:30:33;;;;;;;12.27;2.92;;;;;;;2.21;100.00;99848.34;5093813;28;20028;-56
2021/12/02 02:32:58;;;;;;;11.90;2.63;;;;;;;2.18;100.00;99840.53;5093367;28;20027;-54
2021/12/02 02:35:24;;;;;;;13.52;3.63;;;;;;;2.16;100.00;99836.19;5093737;28;20027;-56
2021/12/02 02:37:49;;;;;;;14.40;3.67;;;;;;;2.15;100.00;99842.97;5093895;28;20057;-56
2021/12/02 02:40:16;;;;;;;15.30;3.75;;;;;;;2.14;100.00;99849.72;5093357;28;20103;-54
2021/12/02 02:42:56;;;;;;;12.10;3.75;;;;;;;2.10;100.00;99844.41;5093654;28;20069;-56
2021/12/02 02:45:21;;;;;;;11.43;3.75;;;;;;;2.11;100.00;99848.69;5093449;28;20020;-55
2021/12/02 02:47:47;;;;;;;14.52;3.80;;;;;;;2.10;100.00;99844.41;5093363;28;20031;-56
2021/12/02 02:50:14;;;;;;;19.27;4.45;;;;;;;2.07;100.00;99840.06;5093760;28;20035;-55
2021/12/02 02:52:40;;;;;;;9.20;3.67;;;;;;;2.06;100.00;99837.44;5092894;28;20024;-56
2021/12/02 02:55:06;;;;;;;12.85;3.50;;;;;;;2.04;100.00;99836.50;5093413;28;20020;-55
2021/12/02 02:57:40;;;;;;;13.15;3.28;;;;;;;2.01;100.00;99841.44;5093371;28;20024;-55
2021/12/02 03:00:11;;;;;;;12.23;3.17;;;;;;;1.97;100.00;99846.34;5093043;28;20024;-54
2021/12/02 03:02:54;;;;;;;11.15;2.90;;;;;;;1.97;100.00;99846.34;5093384;28;20016;-54
2021/12/02 03:05:27;;;;;;;10.35;3.00;;;;;;;1.98;100.00;99847.25;5093651;28;20024;-55
2021/12/02 03:07:56;;;;;;;14.57;3.10;;;;;;;2.00;100.00;99850.72;5092500;28;20020;-54
2021/12/02 03:10:40;;;;;;;10.23;2.72;;;;;;;2.02;100.00;99850.81;5093538;28;20028;-53
2021/12/02 03:13:21;;;;;;;7.45;2.65;;;;;;;2.01;100.00;99862.63;5092843;28;20433;-54
2021/12/02 03:18:33;;;;;;;12.82;3.30;;;;;;;1.89;100.00;99878.16;5093401;28;20375;-54
2021/12/02 03:20:58;;;;;;;12.43;3.45;;;;;;;1.89;100.00;99862.91;5092806;28;20016;-55
2021/12/02 03:23:24;;;;;;;11.43;3.08;;;;;;;1.92;100.00;99868.13;5092514;28;20040;-55
2021/12/02 03:25:50;;;;;;;9.38;2.90;;;;;;;1.92;100.00;99870.66;5093087;28;20102;-54
2021/12/02 03:28:15;;;;;;;10.98;3.22;;;;;;;1.90;100.00;99867.19;5092384;28;20512;-54
2021/12/02 03:30:40;;;;;;;10.02;2.83;;;;;;;1.90;100.00;99859.59;5092846;28;20034;-54
2021/12/02 03:33:06;;;;;;;12.93;3.03;;;;;;;1.92;100.00;99869.81;5093262;28;20055;-55
2021/12/02 03:35:31;;;;;;;11.40;2.83;;;;;;;1.92;100.00;99867.28;5092289;28;20166;-55
2021/12/02 03:37:56;;;;;;;11.43;2.33;;;;;;;1.88;100.00;99876.41;5093100;28;20024;-55
2021/12/02 03:40:22;;;;;;;10.95;2.30;;;;;;;1.90;100.00;99869.75;5093078;28;20028;-54
2021/12/02 03:42:49;;;;;;;11.15;2.42;;;;;;;1.85;100.00;99873.72;5091897;28;20545;-55
2021/12/02 03:45:14;;;;;;;11.55;2.15;;;;;;;1.87;100.00;99879.75;5092283;28;20490;-55
2021/12/02 03:47:40;;;;;;;12.13;2.13;;;;;;;1.87;100.00;99874.66;5092675;28;20024;-54
2021/12/02 03:50:05;;;;;;;10.65;2.67;;;;;;;1.90;100.00;99874.81;5092189;28;20510;-54
2021/12/02 03:52:31;;;;;;;11.75;2.60;;;;;;;1.89;100.00;99880.69;5092830;28;20055;-55
2021/12/02 03:54:56;;;;;;;10.48;2.50;;;;;;;1.89;100.00;99870.53;5092715;28;20051;-55
2021/12/02 03:57:21;;;;;;;11.80;2.25;;;;;;;1.90;100.00;99872.28;5092184;28;20028;-54
2021/12/02 03:59:46;;;;;;;11.93;2.10;;;;;;;1.91;100.00;99874.03;5092586;28;20375;-54
2021/12/02 04:02:12;;;;;;;9.70;2.22;;;;;;;1.92;100.00;99868.13;5092752;28;20020;-54
2021/12/02 04:04:37;;;;;;;10.38;2.17;;;;;;;1.91;100.00;99866.41;5091912;28;20036;-55
2021/12/02 04:07:03;;;;;;;10.85;2.35;;;;;;;1.90;100.00;99872.28;5092941;28;20016;-54
2021/12/02 04:09:35;;;;;;;15.32;2.65;;;;;;;1.90;100.00;99859.59;5092027;28;20390;-54
2021/12/02 04:12:47;;;;;;;16.35;2.58;;;;;;;1.87;100.00;99849.25;5092558;28;20074;-54
2021/12/02 04:15:05;;;;;;;13.35;2.40;;;;;;;1.85;100.00;99855.94;5081613;28;20047;-55
2021/12/02 04:17:43;;;;;;;11.70;2.35;;;;;;;1.85;100.00;99855.94;5091836;28;20028;-54
2021/12/02 04:20:20;;;;;;;13.55;2.70;;;;;;;1.86;100.00;99861.88;5092660;28;20501;-54
2021/12/02 04:22:45;;;;;;;11.35;2.53;;;;;;;1.87;100.00;99858.56;5092134;28;20074;-55
2021/12/02 04:25:12;;;;;;;10.63;2.20;;;;;;;1.90;100.00;99861.22;5091819;28;20028;-54
2021/12/02 04:27:38;;;;;;;9.90;2.30;;;;;;;1.92;100.00;99862.19;5092502;28;20032;-54
2021/12/02 04:30:06;;;;;;;14.48;2.53;;;;;;;1.94;100.00;99878.41;5092473;28;20381;-56
2021/12/02 04:32:31;;;;;;;13.23;3.00;;;;;;;1.97;100.00;99879.38;5091628;28;20028;-55
2021/12/02 04:34:57;;;;;;;17.42;2.58;;;;;;;1.99;100.00;99889.66;5092392;28;20357;-54
2021/12/02 04:37:23;;;;;;;13.25;2.72;;;;;;;1.99;100.00;99889.66;5092369;28;20020;-55
2021/12/02 04:39:51;;;;;;;12.57;2.83;;;;;;;2.01;100.00;99888.03;5091840;28;20040;-56
2021/12/02 04:42:17;;;;;;;9.50;2.00;;;;;;;1.96;100.00;99899.66;5092372;28;20399;-56
2021/12/02 04:44:42;;;;;;;8.27;1.88;;;;;;;1.92;100.00;99906.25;5091709;28;20459;-56
2021/12/02 04:47:07;;;;;;;8.30;1.90;;;;;;;1.89;100.00;99913.72;5092300;28;20020;-56
2021/12/02 04:49:33;;;;;;;10.98;2.00;;;;;;;1.88;100.00;99903.50;5092160;28;20464;-55
2021/12/02 04:51:58;;;;;;;6.00;1.63;;;;;;;1.82;99.67;99898.97;5091780;28;20032;-56
2021/12/02 04:54:24;;;;;;;6.13;1.60;;;;;;;1.75;99.75;99899.47;5091800;28;20028;-56
2021/12/02 04:56:49;;;;;;;9.60;1.63;;;;;;;1.68;99.37;99888.16;5093919;28;20032;-56
2021/12/02 04:59:14;;;;;;;6.25;1.60;;;;;;;1.68;99.57;99897.41;5095264;28;20069;-56
2021/12/02 05:01:39;;;;;;;7.78;1.48;;;;;;;1.64;99.86;99896.41;5095456;28;20035;-56
2021/12/02 05:04:05;;;;;;;9.93;2.00;;;;;;;1.63;100.00;99900.59;5095915;28;20070;-56
2021/12/02 05:06:30;;;;;;;11.07;2.10;;;;;;;1.66;100.00;99904.09;5094783;28;20036;-55
2021/12/02 05:08:57;;;;;;;12.32;2.33;;;;;;;1.68;100.00;99899.97;5095798;28;20042;-56
2021/12/02 05:11:23;;;;;;;11.80;2.05;;;;;;;1.71;100.00;99908.63;5095913;28;20016;-55
2021/12/02 05:13:48;;;;;;;11.40;2.20;;;;;;;1.69;100.00;99915.31;5094836;28;20024;-56
2021/12/02 05:16:13;;;;;;;9.52;1.83;;;;;;;1.69;100.00;99915.31;5095715;28;20024;-55
2021/12/02 05:18:40;;;;;;;9.27;2.10;;;;;;;1.68;100.00;99938.94;5095288;28;20028;-56
2021/12/02 05:21:05;;;;;;;10.10;2.00;;;;;;;1.69;100.00;99927.09;5094630;28;20050;-56
2021/12/02 05:23:30;;;;;;;7.43;2.00;;;;;;;1.61;100.00;99931.81;5094914;28;20048;-57
2021/12/02 05:25:55;;;;;;;6.97;1.60;;;;;;;1.49;99.90;99937.13;5095425;28;20388;-57
2021/12/02 05:28:21;;;;;;;5.65;1.33;;;;;;;1.35;99.52;99927.94;5094466;28;20026;-56
2021/12/02 05:30:47;;;;;;;4.03;1.30;;;;;;;1.28;99.57;99926.75;5095217;28;20464;-56
2021/12/02 05:33:12;;;;;;;8.52;2.00;;;;;;;1.20;99.97;99925.47;5095215;28;20103;-56
2021/12/02 05:35:37;;;;;;;4.93;1.50;;;;;;;1.17;99.98;99920.25;5094142;28;20069;-56
2021/12/02 05:38:03;;;;;;;6.53;1.50;;;;;;;1.13;100.00;99914.13;5095204;28;20097;-55
2021/12/02 05:40:28;;;;;;;6.70;1.73;;;;;;;1.08;100.00;99905.41;5095027;28;20020;-55
2021/12/02 05:42:54;;;;;;;6.78;1.60;;;;;;;1.06;100.00;99912.94;5094313;28;20031;-56
2021/12/02 05:45:19;;;;;;;7.72;1.83;;;;;;;1.06;100.00;99912.94;5095031;28;20027;-55
2021/12/02 05:47:44;;;;;;;9.70;2.08;;;;;;;1.07;100.00;99917.22;5094493;28;20069;-56
2021/12/02 05:50:10;;;;;;;7.95;1.90;;;;;;;1.10;100.00;99922.44;5094360;28;20119;-55
2021/12/02 05:52:35;;;;;;;6.75;1.90;;;;;;;1.10;100.00;99931.75;5094466;28;20024;-56
2021/12/02 05:55:00;;;;;;;7.28;2.25;;;;;;;1.13;100.00;99930.22;5094559;28;20043;-54
2021/12/02 05:57:26;;;;;;;8.98;2.35;;;;;;;1.15;100.00;99927.78;5095068;28;20432;-55
2021/12/02 05:59:51;;;;;;;5.40;2.10;;;;;;;1.13;100.00;99932.75;5095621;28;20445;-55
2021/12/02 06:02:16;;;;;;;10.05;3.40;;;;;;;1.12;100.00;99928.50;5094698;28;20031;-55
2021/12/02 06:04:44;;;;;;;7.03;2.22;;;;;;;1.08;100.00;99928.25;5094731;28;20047;-53
2021/12/02 06:07:09;;;;;;;7.07;1.80;;;;;;;1.04;100.00;99926.34;5094685;28;20325;-54
2021/12/02 06:09:34;;;;;;;8.52;2.05;;;;;;;0.97;100.00;99931.09;5094041;28;20035;-55
2021/12/02 06:12:00;;;;;;;7.38;1.73;;;;;;;0.91;100.00;99932.41;5095495;28;20016;-54
2021/12/02 06:14:25;;;;;;;8.85;1.90;;;;;;;0.82;100.00;99930.25;5095051;28;20031;-54
2021/12/02 06:16:51;;;;;;;4.72;1.55;;;;;;;0.77;100.00;99932.53;5094258;28;20376;-54
2021/12/02 06:19:16;;;;;;;4.47;1.38;;;;;;;0.73;100.00;99932.31;5095424;28;20024;-54
2021/12/02 06:21:41;;;;;;;5.25;1.60;;;;;;;0.68;100.00;99934.56;5094858;28;20099;-54
2021/12/02 06:24:08;;;;;;;4.28;1.30;;;;;;;0.65;100.00;99937.81;5093891;28;20047;-54
2021/12/02 06:26:34;;;;;;;5.25;1.90;;;;;;;0.59;100.00;99942.56;5094971;28;20036;-54
2021/12/02 06:29:00;;;;;;;5.43;1.58;;;;;;;0.57;100.00;99945.78;5094867;28;20039;-53
2021/12/02 06:31:25;;;;;;;6.72;1.95;;;;;;;0.55;100.00;99940.66;5093677;28;20028;-54
2021/12/02 06:33:50;;;;;;;9.50;2.92;;;;;;;0.52;100.00;99950.63;5094692;28;20085;-54
2021/12/02 06:36:16;;;;;;;6.40;2.60;;;;;;;0.48;100.00;99938.56;5094674;28;20027;-54
2021/12/02 06:38:42;;;;;;;5.55;2.10;;;;;;;0.44;100.00;99944.25;5093682;28;20097;-53
2021/12/02 06:41:08;;;;;;;7.05;2.33;;;;;;;0.43;100.00;99945.91;5094772;28;20032;-53
2021/12/02 06:43:33;;;;;;;8.25;2.70;;;;;;;0.52;100.00;99953.16;5094535;28;20016;-54
2021/12/02 06:45:59;;;;;;;10.18;3.88;;;;;;;0.53;100.00;99957.44;5093571;28;20036;-55
2021/12/02 06:48:25;;;;;;;7.43;3.33;;;;;;;0.58;100.00;99957.69;5094551;28;20115;-51
2021/12/02 06:50:50;;;;;;;4.38;2.03;;;;;;;0.53;100.00;99975.19;5094550;28;20511;-55
2021/12/02 06:53:17;;;;;;;5.75;2.00;;;;;;;0.57;100.00;99977.13;5093893;28;20023;-54
2021/12/02 06:55:43;;;;;;;11.25;2.63;;;;;;;0.55;100.00;99986.28;5093819;28;20020;-53
2021/12/02 06:58:08;;;;;;;7.03;2.95;;;;;;;0.59;100.00;99978.03;5093782;28;20028;-54
2021/12/02 07:00:34;;;;;;;9.63;3.00;;;;;;;0.60;100.00;99967.13;5093908;28;20027;-55
2021/12/02 07:03:01;;;;;;;9.25;2.30;;;;;;;0.64;100.00;99970.72;5094278;28;20305;-54
2021/12/02 07:05:29;;;;;;;5.10;1.80;;;;;;;0.66;100.00;99984.34;5093445;28;20043;-54
2021/12/02 07:07:55;;;;;;;9.80;1.98;;;;;;;0.67;100.00;99995.38;5094043;28;20020;-54
2021/12/02 07:10:23;;;;;;;7.65;2.20;;;;;;;0.68;100.00;99995.44;5094009;28;20051;-54
2021/12/02 07:12:53;;;;;;;10.10;2.50;;;;;;;0.69;100.00;99994.66;5093190;28;20028;-54
2021/12/02 07:15:21;;;;;;;7.88;2.70;;;;;;;0.71;100.00;99999.81;5093922;28;20032;-52
2021/12/02 07:17:50;;;;;;;;;;;;;;;0.79;100.00;100007.06;5093652;28;20119;-54
2021/12/02 07:20:17;;;;;;;8.57;3.20;;;;;;;0.78;100.00;100015.44;5092607;28;19954;-55
2021/12/02 07:22:42;;;;;;;10.95;3.10;;;;;;;0.85;100.00;100018.34;5093315;28;20097;-54
2021/12/02 07:25:08;;;;;;;9.27;3.10;;;;;;;0.85;100.00;100003.97;5093452;28;20020;-54
2021/12/02 07:27:33;;;;;;;9.05;2.03;;;;;;;0.88;100.00;99996.56;5092571;28;20059;-55
2021/12/02 07:29:59;;;;;;;4.97;1.85;;;;;;;0.85;100.00;99986.22;5093672;28;20028;-54
2021/12/02 07:32:35;;;;;;;9.38;2.00;;;;;;;0.85;100.00;100006.50;5093544;28;20035;-55
2021/12/02 07:35:04;;;;;;;9.18;2.20;;;;;;;0.84;100.00;99996.28;5092645;28;20024;-54
2021/12/02 07:37:29;;;;;;;6.63;2.10;;;;;;;0.82;100.00;99996.22;5093071;28;20050;-56
2021/12/02 07:39:55;;;;;;;10.35;2.58;;;;;;;0.79;100.00;100006.19;5092926;28;20020;-54
2021/12/02 07:42:21;;;;;;;6.10;2.00;;;;;;;0.77;100.00;100003.56;5092253;28;20029;-55
2021/12/02 07:44:46;;;;;;;5.30;2.20;;;;;;;0.79;100.00;100018.88;5092662;28;20081;-55
2021/12/02 07:47:12;;;;;;;10.35;3.00;;;;;;;0.79;100.00;100012.13;5092663;28;20024;-55
2021/12/02 07:49:38;;;;;;;8.98;3.42;;;;;;;0.80;100.00;100013.88;5091868;28;20035;-54
2021/12/02 07:52:04;;;;;;;7.00;2.78;;;;;;;0.81;100.00;100022.34;5092941;28;20024;-55
2021/12/02 07:54:33;;;;;;;9.93;3.45;;;;;;;0.78;100.00;100022.19;5092197;28;20028;-53
2021/12/02 07:56:59;;;;;;;7.70;2.78;;;;;;;0.75;100.00;100025.44;5092383;28;20402;-54
2021/12/02 07:59:24;;;;;;;10.73;3.15;;;;;;;0.75;100.00;100022.91;5092498;28;20103;-55
2021/12/02 08:01:51;;;;;;;7.20;2.05;;;;;;;0.76;100.00;100031.38;5091758;28;20104;-55
2021/12/02 08:04:16;;;;;;;11.40;2.83;;;;;;;0.76;100.00;100033.91;5092917;28;20094;-55
2021/12/02 08:06:41;;;;;;;6.93;2.60;;;;;;;0.74;100.00;100026.22;5092255;28;20454;-55
2021/12/02 08:09:06;;;;;;;9.52;3.17;;;;;;;0.72;100.00;100030.31;5091942;28;20052;-56
2021/12/02 08:11:33;;;;;;;11.00;3.50;;;;;;;0.70;100.00;100025.94;5092544;28;20028;-55
2021/12/02 08:13:58;;;;;;;12.30;3.42;;;;;;;0.69;100.00;100026.78;5092626;28;20097;-54
2021/12/02 08:16:24;;;;;;;10.75;2.88;;;;;;;0.65;100.00;100031.66;5091560;28;20088;-54
2021/12/02 08:18:49;;;;;;;11.10;3.50;;;;;;;0.65;100.00;100038.41;5092642;28;20502;-54
2021/12/02 08:21:15;;;;;;;9.95;2.97;;;;;;;0.63;100.00;100043.38;5092505;28;20031;-53
2021/12/02 08:23:40;;;;;;;9.18;2.97;;;;;;;0.63;100.00;100047.56;5091304;28;20067;-54
2021/12/02 08:26:06;;;;;;;8.52;3.20;;;;;;;0.63;100.00;100058.59;5092549;28;20103;-55
2021/12/02 08:28:31;;;;;;;12.60;3.60;;;;;;;0.63;100.00;100055.19;5092296;28;20081;-54
2021/12/02 08:30:58;;;;;;;15.13;3.38;;;;;;;0.65;100.00;100048.53;5093513;28;20029;-54
2021/12/02 08:33:23;;;;;;;11.38;3.33;;;;;;;0.67;100.00;100056.22;5096603;28;20095;-52
2021/12/02 08:35:48;;;;;;;11.98;3.70;;;;;;;0.70;100.00;100051.31;5096264;28;20069;-55
2021/12/02 08:38:16;;;;;;;13.10;3.38;;;;;;;0.72;100.00;100060.75;5095660;28;20024;-54
2021/12/02 08:40:44;;;;;;;10.07;3.75;;;;;;;0.73;100.00;100065.06;5095922;28;20035;-54
2021/12/02 08:43:13;;;;;;;11.85;3.53;;;;;;;0.74;100.00;100068.47;5096077;28;20060;-54
2021/12/02 08:45:41;;;;;;;12.88;3.72;;;;;;;0.80;100.00;100084.03;5095001;28;20512;-54
2021/12/02 08:48:07;;;;;;;16.30;4.47;;;;;;;0.92;100.00;100087.25;5096062;28;20456;-54
2021/12/02 08:50:34;;;;;;;15.00;5.30;;;;;;;1.18;100.00;100108.13;5095839;28;20494;-54
2021/12/02 08:53:00;;;;;;;15.30;5.50;;;;;;;1.30;100.00;100118.97;5095268;28;20391;-54
2021/12/02 08:55:29;;;;;;;17.10;6.50;;;;;;;1.35;100.00;100115.81;5095889;28;20491;-52
2021/12/02 08:57:56;;;;;;;9.40;5.38;;;;;;;1.38;100.00;100124.47;5095028;28;20035;-53
2021/12/02 09:00:32;;;;;;;13.73;3.92;;;;;;;1.39;100.00;100128.75;5096052;28;20031;-54
2021/12/02 09:02:58;;;;;;;13.90;4.20;;;;;;;1.38;100.00;100118.50;5095878;28;20059;-53
2021/12/02 09:05:23;;;;;;;12.48;3.22;;;;;;;1.38;100.00;100118.50;5095027;28;20099;-54
2021/12/02 09:07:48;;;;;;;16.40;3.70;;;;;;;1.39;100.00;100122.81;5095814;28;20028;-54
2021/12/02 09:10:14;;;;;;;11.60;3.75;;;;;;;1.44;100.00;100129.88;5095591;28;20024;-53
2021/12/02 09:12:40;;;;;;;14.32;3.20;;;;;;;1.48;100.00;100134.34;5094452;28;20028;-52
2021/12/02 09:15:10;;;;;;;9.85;3.00;;;;;;;1.44;100.00;100146.78;5095667;28;20073;-53
2021/12/02 09:17:36;;;;;;;10.77;2.95;;;;;;;1.43;100.00;100139.94;5095389;28;20119;-54
2021/12/02 09:20:03;;;;;;;15.88;3.92;;;;;;;1.44;100.00;100146.78;5094601;28;20452;-53
2021/12/02 09:22:28;;;;;;;12.95;3.60;;;;;;;1.39;100.00;100143.13;5094999;28;20431;-55
2021/12/02 09:24:53;;;;;;;12.80;4.07;;;;;;;1.39;100.00;100155.81;5095235;28;20028;-52
2021/12/02 09:27:19;;;;;;;14.65;3.95;;;;;;;1.40;100.00;100153.34;5094825;28;20028;-55
2021/12/02 09:29:44;;;;;;;14.77;4.50;;;;;;;1.42;100.00;100158.50;5095178;28;20035;-55
2021/12/02 09:32:11;;;;;;;18.67;5.05;;;;;;;1.47;100.00;100167.25;5095303;28;20028;-54
2021/12/02 09:34:36;;;;;;;11.63;5.20;;;;;;;1.55;100.00;100165.13;5094224;28;20069;-55
2021/12/02 09:37:02;;;;;;;17.48;6.68;;;;;;;1.60;100.00;100158.63;5094969;28;20024;-56
2021/12/02 09:39:32;;;;;;;14.52;5.50;;;;;;;1.67;100.00;100164.94;5094652;28;20084;-55
2021/12/02 09:41:58;;;;;;;18.52;6.30;;;;;;;1.69;100.00;100163.34;5093525;28;20085;-55
2021/12/02 09:44:23;;;;;;;16.98;5.95;;;;;;;1.73;100.00;100165.25;5095028;28;20021;-55
2021/12/02 09:46:49;;;;;;;12.93;5.00;;;;;;;1.73;100.00;100162.72;5094989;28;20034;-55
2021/12/02 09:49:16;;;;;;;17.00;4.60;;;;;;;1.68;100.00;100159.06;5094094;28;20432;-55
2021/12/02 09:54:26;;;;;;;12.98;4.85;;;;;;;1.75;100.00;100168.78;5094002;28;20116;-53
2021/12/02 09:56:55;;;;;;;14.25;5.05;;;;;;;1.98;100.00;100160.69;5094747;28;20031;-55
2021/12/02 10:02:06;;;;;;;17.60;4.75;;;;;;;2.56;100.00;100164.53;5093939;28;20244;-55
2021/12/02 10:04:35;;;;;;;;;;;;;;;2.84;100.00;100170.13;5094819;28;20020;-55
2021/12/02 10:07:22;;;;;;;13.48;3.78;;;;;;;3.27;97.57;100167.13;5094605;28;19951;-55
2021/12/02 10:10:04;;;;;;;11.85;2.78;;;;;;;3.49;94.76;100169.03;5093534;28;20032;-55
2021/12/02 10:12:33;;;;;;;8.95;2.75;;;;;;;3.63;92.65;100173.09;5094367;28;20039;-55
2021/12/02 10:15:01;;;;;;;10.82;2.63;;;;;;;4.06;93.47;100175.84;5094357;28;20099;-56
2021/12/02 10:17:36;;;;;;;9.77;2.60;;;;;;;4.19;92.35;100175.59;5093842;28;20399;-54
2021/12/02 10:22:37;;;;;;;7.55;2.05;;;;;;;4.38;86.50;100181.53;5092946;28;20052;-55
2021/12/02 10:25:03;;;;;;;9.32;2.88;;;;;;;4.44;86.75;100186.88;5094188;28;20383;-54
2021/12/02 10:27:28;;;;;;;7.10;1.90;;;;;;;4.41;88.69;100185.06;5093790;28;20028;-53
2021/12/02 10:29:53;;;;;;;8.68;2.47;;;;;;;4.52;87.87;100189.75;5093448;28;20450;-54
2021/12/02 10:32:25;;;;;;;9.25;2.72;;;;;;;4.44;86.54;100197.06;5093957;28;20031;-54
2021/12/02 10:34:57;;;;;;;9.93;2.10;;;;;;;4.37;87.93;100195.06;5094061;28;20052;-55
2021/12/02 10:37:28;;;;;;;6.65;2.22;;;;;;;4.33;87.58;100196.63;5093278;28;20027;-54
2021/12/02 10:40:01;;;;;;;4.88;2.20;;;;;;;4.36;88.47;100190.78;5093758;28;20024;-55
2021/12/02 10:42:28;;;;;;;9.48;2.20;;;;;;;4.21;87.38;100198.59;5093929;28;20028;-55
2021/12/02 10:44:57;;;;;;;6.25;2.15;;;;;;;4.18;87.83;100199.34;5093163;28;20077;-54
2021/12/02 10:47:23;;;;;;;6.43;2.30;;;;;;;4.11;88.37;100193.09;5093802;28;20016;-55
2021/12/02 10:49:53;;;;;;;6.60;1.77;;;;;;;4.22;88.59;100205.47;5093511;28;20070;-52
2021/12/02 10:52:32;;;;;;;6.18;2.00;;;;;;;4.31;88.29;100205.88;5093084;28;20111;-55
2021/12/02 10:55:07;;;;;;;7.78;2.33;;;;;;;4.43;87.19;100211.53;5093443;28;20464;-54
2021/12/02 10:57:36;;;;;;;8.27;2.22;;;;;;;4.55;86.65;100211.19;5092857;28;20024;-54
2021/12/02 11:00:06;;;;;;;8.48;2.63;;;;;;;4.89;86.50;100212.66;5093723;28;20031;-54
2021/12/02 11:02:35;;;;;;;6.32;2.10;;;;;;;5.34;83.36;100205.94;5093482;28;20028;-54
2021/12/02 11:05:33;;;;;;;7.18;1.65;;;;;;;5.48;84.98;100204.78;5092610;28;20024;-54
2021/12/02 11:08:02;;;;;;;4.38;1.13;;;;;;;5.00;81.79;100205.41;5059653;28;20032;-55
2021/12/02 11:10:40;;;;;;;5.50;1.30;;;;;;;4.75;83.33;100203.50;5092973;28;20056;-55
2021/12/02 11:13:07;;;;;;;4.38;1.50;;;;;;;4.49;85.47;100216.00;5092574;28;20031;-54
2021/12/02 11:15:35;;;;;;;7.03;1.75;;;;;;;4.31;85.45;100215.22;5092888;28;20024;-53
2021/12/02 11:18:08;;;;;;;;;;;;;;;4.45;88.62;100216.69;5093712;28;20016;-54
2021/12/02 11:20:36;;;;;;;6.80;1.35;;;;;;;3.84;85.96;100227.53;5092436;28;20006;-54
2021/12/02 11:23:18;;;;;;;5.97;1.63;;;;;;;3.81;87.33;100230.81;5093138;28;20055;-53
2021/12/02 11:25:49;;;;;;;6.07;1.58;;;;;;;3.87;86.73;100237.88;5092104;28;20036;-54
2021/12/02 11:28:15;;;;;;;1.98;1.08;;;;;;;4.19;87.41;100226.59;5093278;28;20419;-54
2021/12/02 11:30:40;;;;;;;5.07;1.30;;;;;;;4.61;86.98;100229.31;5092852;28;20548;-49
2021/12/02 11:33:08;;;;;;;4.22;1.27;;;;;;;5.03;85.12;100225.97;5092400;28;20537;-52
2021/12/02 11:35:42;;;;;;;;;;;;;;;5.47;88.59;100227.75;5093243;28;20028;-54
2021/12/02 11:38:21;;;;;;;3.38;1.08;;;;;;;5.30;81.81;100235.59;5092947;28;19990;-54
2021/12/02 11:40:52;;;;;;;7.22;1.23;;;;;;;5.19;80.61;100224.94;5092230;28;20055;-54
2021/12/02 11:43:20;;;;;;;3.47;1.10;;;;;;;5.16;83.09;100227.34;5093134;28;20133;-53
2021/12/02 11:45:49;;;;;;;4.68;1.10;;;;;;;5.07;81.11;100221.88;5092738;28;20020;-53
2021/12/02 11:48:26;;;;;;;4.88;1.20;;;;;;;4.82;82.77;100222.53;5092228;28;20032;-54
2021/12/02 11:50:54;;;;;;;2.97;1.45;;;;;;;4.60;83.43;100219.91;5092800;28;20032;-54
2021/12/02 11:53:23;;;;;;;3.15;1.40;;;;;;;4.36;84.64;100218.84;5092959;28;20032;-54
2021/12/02 11:55:51;;;;;;;4.03;1.60;;;;;;;4.16;84.13;100216.28;5092071;28;20016;-54
2021/12/02 11:58:17;;;;;;;2.35;1.05;;;;;;;3.98;85.56;100223.97;5092902;28;20020;-54
2021/12/02 12:00:45;;;;;;;2.58;1.00;;;;;;;3.81;86.70;100227.38;5091740;28;20024;-52
2021/12/02 12:03:20;;;;;;;1.23;0.70;;;;;;;3.60;85.28;100231.56;5092784;28;20035;-54
2021/12/02 12:05:54;;;;;;;1.40;0.80;;;;;;;3.45;85.51;100238.47;5094252;28;20554;-54
2021/12/02 12:08:41;;;;;;;0.70;0.70;;;;;;;3.28;86.68;100241.06;5096099;28;20364;-52
2021/12/02 12:11:22;;;;;;;1.90;0.73;;;;;;;3.00;87.28;100254.09;5096993;28;20020;-54
2021/12/02 12:13:50;;;;;;;3.15;1.00;;;;;;;2.73;88.02;100249.34;5096452;28;20040;-54
2021/12/02 12:16:34;;;;;;;0.98;0.90;;;;;;;2.73;89.18;100251.88;5096252;28;20024;-50
2021/12/02 12:19:17;;;;;;;1.65;0.85;;;;;;;2.75;89.53;100254.50;5096813;28;20031;-53
2021/12/02 12:21:51;;;;;;;2.40;1.23;;;;;;;2.53;90.29;100255.94;5095779;28;20028;-55
2021/12/02 12:24:17;;;;;;;3.40;1.35;;;;;;;2.53;91.59;100261.03;5096357;28;20105;-52
2021/12/02 12:26:45;;;;;;;4.82;1.70;;;;;;;2.56;90.67;100271.34;5096467;28;20028;-54
2021/12/02 12:29:12;;;;;;;2.70;1.40;;;;;;;2.59;91.76;100270.66;5095937;28;20028;-53
2021/12/02 12:32:02;;;;;;;6.60;1.90;;;;;;;2.73;92.03;100282.41;5096268;28;20379;-54
2021/12/02 12:34:40;;;;;;;3.17;1.80;;;;;;;2.86;91.15;100280.50;5096273;28;20383;-54
2021/12/02 12:40:12;;;;;;;5.65;1.80;;;;;;;3.28;90.24;100280.94;5096464;28;20036;-54
2021/12/02 12:42:48;;;;;;;5.65;1.83;;;;;;;3.46;89.84;100275.88;5096547;28;20105;-54
2021/12/02 12:45:41;;;;;;;5.15;1.52;;;;;;;3.84;88.81;100273.44;5096522;28;20026;-54
2021/12/02 12:48:24;;;;;;;4.68;1.20;;;;;;;4.08;87.24;100273.69;5096421;28;20028;-52
2021/12/02 12:50:50;;;;;;;2.67;1.15;;;;;;;4.11;86.65;100278.94;5095182;28;20036;-52
2021/12/02 12:53:35;;;;;;;4.00;1.13;;;;;;;4.27;87.02;100285.63;5096125;28;20026;-52
2021/12/02 12:56:05;;;;;;;2.55;1.23;;;;;;;4.45;86.73;100286.47;5096193;28;20305;-51
2021/12/02 12:58:33;;;;;;;2.80;1.60;;;;;;;4.65;84.20;100304.34;5095135;28;20051;-52
2021/12/02 13:01:29;;;;;;;4.68;1.30;;;;;;;4.76;82.44;100312.47;5095944;28;20039;-52